sensor_id;sensor_type;location;lat;lon;timestamp;pressure;altitude;pressure_sealevel;temperature;humidity
41706;BME280;27385;51.096;17.190;2023-06-24T00:00:46;100509.33;;;19.49;98.71
41706;BME280;27385;51.096;17.190;2023-06-24T00:03:36;100508.42;;;19.48;98.77
41706;BME280;27385;51.096;17.190;2023-06-24T00:06:07;100513.27;;;19.47;98.66
41706;BME280;27385;51.096;17.190;2023-06-24T00:08:39;100517.05;;;19.46;98.69
41706;BME280;27385;51.096;17.190;2023-06-24T00:11:10;100511.46;;;19.43;98.53
41706;BME280;27385;51.096;17.190;2023-06-24T00:13:43;100516.72;;;19.38;98.60
41706;BME280;27385;51.096;17.190;2023-06-24T00:16:14;100516.40;;;19.35;98.69
41706;BME280;27385;51.096;17.190;2023-06-24T00:18:44;100515.23;;;19.33;98.69
41706;BME280;27385;51.096;17.190;2023-06-24T00:21:15;100511.86;;;19.29;98.58
41706;BME280;27385;51.096;17.190;2023-06-24T00:23:47;100507.42;;;19.26;98.60
41706;BME280;27385;51.096;17.190;2023-06-24T00:26:18;100512.17;;;19.21;98.58
41706;BME280;27385;51.096;17.190;2023-06-24T00:28:49;100515.73;;;19.15;98.52
41706;BME280;27385;51.096;17.190;2023-06-24T00:31:20;100511.77;;;19.12;98.64
41706;BME280;27385;51.096;17.190;2023-06-24T00:33:52;100513.30;;;19.11;98.53
41706;BME280;27385;51.096;17.190;2023-06-24T00:36:23;100515.30;;;19.09;98.28
41706;BME280;27385;51.096;17.190;2023-06-24T00:38:55;100515.23;;;19.06;98.34
41706;BME280;27385;51.096;17.190;2023-06-24T00:41:26;100515.89;;;19.02;98.35
41706;BME280;27385;51.096;17.190;2023-06-24T00:43:57;100517.56;;;18.99;98.39
41706;BME280;27385;51.096;17.190;2023-06-24T00:46:29;100519.70;;;18.97;98.42
41706;BME280;27385;51.096;17.190;2023-06-24T00:49:02;100520.72;;;18.93;98.48
41706;BME280;27385;51.096;17.190;2023-06-24T00:51:34;100527.52;;;18.88;98.67
41706;BME280;27385;51.096;17.190;2023-06-24T00:54:05;100536.67;;;18.82;98.62
41706;BME280;27385;51.096;17.190;2023-06-24T00:56:37;100535.95;;;18.78;98.93
41706;BME280;27385;51.096;17.190;2023-06-24T00:59:09;100538.70;;;18.75;99.00
41706;BME280;27385;51.096;17.190;2023-06-24T01:01:41;100538.91;;;18.73;99.02
41706;BME280;27385;51.096;17.190;2023-06-24T01:04:14;100540.69;;;18.71;99.08
41706;BME280;27385;51.096;17.190;2023-06-24T01:06:46;100540.67;;;18.69;99.11
41706;BME280;27385;51.096;17.190;2023-06-24T01:09:17;100544.77;;;18.65;99.34
41706;BME280;27385;51.096;17.190;2023-06-24T01:11:48;100548.19;;;18.61;99.42
41706;BME280;27385;51.096;17.190;2023-06-24T01:14:19;100551.04;;;18.57;99.44
41706;BME280;27385;51.096;17.190;2023-06-24T01:16:58;100556.52;;;18.53;99.34
41706;BME280;27385;51.096;17.190;2023-06-24T01:19:50;100558.03;;;18.51;99.54
41706;BME280;27385;51.096;17.190;2023-06-24T01:22:37;100564.64;;;18.48;99.37
41706;BME280;27385;51.096;17.190;2023-06-24T01:25:30;100569.18;;;18.45;99.49
41706;BME280;27385;51.096;17.190;2023-06-24T01:34:10;100588.20;;;18.40;99.18
41706;BME280;27385;51.096;17.190;2023-06-24T01:36:47;100596.08;;;18.41;99.13
41706;BME280;27385;51.096;17.190;2023-06-24T01:39:23;100601.30;;;18.42;99.10
41706;BME280;27385;51.096;17.190;2023-06-24T01:42:00;100603.43;;;18.38;99.22
41706;BME280;27385;51.096;17.190;2023-06-24T01:44:34;100599.90;;;18.37;99.21
41706;BME280;27385;51.096;17.190;2023-06-24T01:47:07;100603.51;;;18.35;99.26
41706;BME280;27385;51.096;17.190;2023-06-24T01:49:41;100606.51;;;18.33;99.40
41706;BME280;27385;51.096;17.190;2023-06-24T01:52:13;100609.52;;;18.27;99.55
41706;BME280;27385;51.096;17.190;2023-06-24T01:54:47;100613.42;;;18.19;99.42
41706;BME280;27385;51.096;17.190;2023-06-24T01:57:19;100611.29;;;18.08;99.60
41706;BME280;27385;51.096;17.190;2023-06-24T01:59:52;100619.80;;;17.99;99.38
41706;BME280;27385;51.096;17.190;2023-06-24T02:02:26;100622.77;;;17.92;99.49
41706;BME280;27385;51.096;17.190;2023-06-24T02:04:59;100629.63;;;17.84;99.45
41706;BME280;27385;51.096;17.190;2023-06-24T02:07:32;100629.21;;;17.74;99.13
41706;BME280;27385;51.096;17.190;2023-06-24T02:10:04;100625.52;;;17.59;98.83
41706;BME280;27385;51.096;17.190;2023-06-24T02:12:36;100626.15;;;17.47;98.85
41706;BME280;27385;51.096;17.190;2023-06-24T02:15:09;100630.17;;;17.36;99.05
41706;BME280;27385;51.096;17.190;2023-06-24T02:17:41;100632.58;;;17.24;99.19
41706;BME280;27385;51.096;17.190;2023-06-24T02:20:14;100635.15;;;17.17;99.32
41706;BME280;27385;51.096;17.190;2023-06-24T02:22:46;100639.82;;;17.13;99.42
41706;BME280;27385;51.096;17.190;2023-06-24T02:25:18;100636.44;;;17.12;99.57
41706;BME280;27385;51.096;17.190;2023-06-24T02:27:50;100637.86;;;17.10;99.51
41706;BME280;27385;51.096;17.190;2023-06-24T02:30:23;100639.16;;;17.06;99.32
41706;BME280;27385;51.096;17.190;2023-06-24T02:32:54;100641.63;;;17.01;99.33
41706;BME280;27385;51.096;17.190;2023-06-24T02:35:25;100648.75;;;16.98;98.94
41706;BME280;27385;51.096;17.190;2023-06-24T02:37:56;100647.62;;;16.90;98.86
41706;BME280;27385;51.096;17.190;2023-06-24T02:40:28;100653.63;;;16.82;98.56
41706;BME280;27385;51.096;17.190;2023-06-24T02:42:59;100659.01;;;16.73;98.59
41706;BME280;27385;51.096;17.190;2023-06-24T02:45:30;100656.80;;;16.66;98.53
41706;BME280;27385;51.096;17.190;2023-06-24T02:48:02;100661.71;;;16.61;98.58
41706;BME280;27385;51.096;17.190;2023-06-24T02:50:34;100659.14;;;16.55;98.56
41706;BME280;27385;51.096;17.190;2023-06-24T02:53:05;100671.45;;;16.48;98.58
41706;BME280;27385;51.096;17.190;2023-06-24T02:55:37;100674.36;;;16.41;98.73
41706;BME280;27385;51.096;17.190;2023-06-24T02:58:09;100676.59;;;16.34;98.94
41706;BME280;27385;51.096;17.190;2023-06-24T03:00:40;100682.58;;;16.33;98.88
41706;BME280;27385;51.096;17.190;2023-06-24T03:03:11;100686.37;;;16.29;98.97
41706;BME280;27385;51.096;17.190;2023-06-24T03:05:43;100686.77;;;16.22;98.77
41706;BME280;27385;51.096;17.190;2023-06-24T03:08:18;100692.68;;;16.19;98.72
41706;BME280;27385;51.096;17.190;2023-06-24T03:10:48;100692.16;;;16.16;98.69
41706;BME280;27385;51.096;17.190;2023-06-24T03:13:20;100693.42;;;16.13;98.40
41706;BME280;27385;51.096;17.190;2023-06-24T03:15:50;100696.85;;;16.07;98.44
41706;BME280;27385;51.096;17.190;2023-06-24T03:18:21;100702.04;;;16.02;98.32
41706;BME280;27385;51.096;17.190;2023-06-24T03:20:52;100703.87;;;15.97;98.50
41706;BME280;27385;51.096;17.190;2023-06-24T03:23:23;100713.27;;;15.95;98.61
41706;BME280;27385;51.096;17.190;2023-06-24T03:25:54;100717.46;;;15.91;98.46
41706;BME280;27385;51.096;17.190;2023-06-24T03:28:25;100731.13;;;15.91;98.43
41706;BME280;27385;51.096;17.190;2023-06-24T03:30:56;100734.80;;;15.88;98.37
41706;BME280;27385;51.096;17.190;2023-06-24T03:33:27;100743.70;;;15.85;98.29
41706;BME280;27385;51.096;17.190;2023-06-24T03:35:58;100746.67;;;15.80;98.46
41706;BME280;27385;51.096;17.190;2023-06-24T03:38:29;100745.48;;;15.78;98.71
41706;BME280;27385;51.096;17.190;2023-06-24T03:41:00;100749.50;;;15.74;98.92
41706;BME280;27385;51.096;17.190;2023-06-24T03:43:30;100755.22;;;15.70;99.30
41706;BME280;27385;51.096;17.190;2023-06-24T03:46:02;100762.35;;;15.67;99.23
41706;BME280;27385;51.096;17.190;2023-06-24T03:48:33;100765.83;;;15.64;99.49
41706;BME280;27385;51.096;17.190;2023-06-24T03:51:05;100765.80;;;15.62;99.64
41706;BME280;27385;51.096;17.190;2023-06-24T03:53:36;100765.07;;;15.60;99.84
41706;BME280;27385;51.096;17.190;2023-06-24T03:56:07;100763.02;;;15.58;99.90
41706;BME280;27385;51.096;17.190;2023-06-24T03:58:38;100765.30;;;15.56;100.00
41706;BME280;27385;51.096;17.190;2023-06-24T04:01:09;100767.64;;;15.55;100.00
41706;BME280;27385;51.096;17.190;2023-06-24T04:03:40;100768.82;;;15.54;100.00
41706;BME280;27385;51.096;17.190;2023-06-24T04:06:11;100770.05;;;15.54;100.00
41706;BME280;27385;51.096;17.190;2023-06-24T04:08:42;100772.03;;;15.53;100.00
41706;BME280;27385;51.096;17.190;2023-06-24T04:11:13;100776.89;;;15.52;100.00
41706;BME280;27385;51.096;17.190;2023-06-24T04:13:44;100773.77;;;15.51;100.00
41706;BME280;27385;51.096;17.190;2023-06-24T04:16:15;100774.12;;;15.51;100.00
41706;BME280;27385;51.096;17.190;2023-06-24T04:18:46;100782.13;;;15.50;100.00
41706;BME280;27385;51.096;17.190;2023-06-24T04:21:17;100785.35;;;15.49;100.00
41706;BME280;27385;51.096;17.190;2023-06-24T04:23:48;100782.42;;;15.48;100.00
41706;BME280;27385;51.096;17.190;2023-06-24T04:26:19;100785.20;;;15.47;100.00
41706;BME280;27385;51.096;17.190;2023-06-24T04:28:49;100784.88;;;15.46;100.00
41706;BME280;27385;51.096;17.190;2023-06-24T04:31:20;100790.65;;;15.45;100.00
41706;BME280;27385;51.096;17.190;2023-06-24T04:33:51;100791.53;;;15.45;100.00
41706;BME280;27385;51.096;17.190;2023-06-24T04:36:22;100794.45;;;15.46;100.00
41706;BME280;27385;51.096;17.190;2023-06-24T04:38:53;100796.29;;;15.46;100.00
41706;BME280;27385;51.096;17.190;2023-06-24T04:41:24;100807.69;;;15.45;100.00
41706;BME280;27385;51.096;17.190;2023-06-24T04:43:55;100809.00;;;15.43;100.00
41706;BME280;27385;51.096;17.190;2023-06-24T04:46:26;100813.54;;;15.43;100.00
41706;BME280;27385;51.096;17.190;2023-06-24T04:48:57;100814.61;;;15.44;100.00
41706;BME280;27385;51.096;17.190;2023-06-24T04:51:28;100821.02;;;15.44;100.00
41706;BME280;27385;51.096;17.190;2023-06-24T04:53:59;100819.95;;;15.44;100.00
41706;BME280;27385;51.096;17.190;2023-06-24T04:56:30;100822.53;;;15.43;100.00
41706;BME280;27385;51.096;17.190;2023-06-24T04:59:01;100826.75;;;15.40;100.00
41706;BME280;27385;51.096;17.190;2023-06-24T05:01:32;100837.02;;;15.38;100.00
41706;BME280;27385;51.096;17.190;2023-06-24T05:04:03;100833.82;;;15.35;100.00
41706;BME280;27385;51.096;17.190;2023-06-24T05:06:33;100839.61;;;15.33;100.00
41706;BME280;27385;51.096;17.190;2023-06-24T05:09:05;100845.19;;;15.30;100.00
41706;BME280;27385;51.096;17.190;2023-06-24T05:11:35;100858.66;;;15.29;100.00
41706;BME280;27385;51.096;17.190;2023-06-24T05:14:06;100854.89;;;15.26;100.00
41706;BME280;27385;51.096;17.190;2023-06-24T05:16:38;100862.09;;;15.24;100.00
41706;BME280;27385;51.096;17.190;2023-06-24T05:19:08;100866.41;;;15.21;100.00
41706;BME280;27385;51.096;17.190;2023-06-24T05:21:39;100869.84;;;15.16;100.00
41706;BME280;27385;51.096;17.190;2023-06-24T05:24:10;100870.61;;;15.13;100.00
41706;BME280;27385;51.096;17.190;2023-06-24T05:26:42;100876.16;;;15.10;100.00
41706;BME280;27385;51.096;17.190;2023-06-24T05:29:12;100877.09;;;15.07;100.00
41706;BME280;27385;51.096;17.190;2023-06-24T05:31:43;100888.73;;;15.04;100.00
41706;BME280;27385;51.096;17.190;2023-06-24T05:34:15;100889.16;;;15.01;100.00
41706;BME280;27385;51.096;17.190;2023-06-24T05:36:46;100889.28;;;14.99;100.00
41706;BME280;27385;51.096;17.190;2023-06-24T05:39:18;100893.88;;;14.99;100.00
41706;BME280;27385;51.096;17.190;2023-06-24T05:41:49;100893.55;;;14.97;100.00
41706;BME280;27385;51.096;17.190;2023-06-24T05:44:20;100893.55;;;14.97;100.00
41706;BME280;27385;51.096;17.190;2023-06-24T05:46:52;100894.02;;;14.94;100.00
41706;BME280;27385;51.096;17.190;2023-06-24T05:49:23;100897.05;;;14.90;100.00
41706;BME280;27385;51.096;17.190;2023-06-24T05:51:54;100895.17;;;14.88;100.00
41706;BME280;27385;51.096;17.190;2023-06-24T05:54:25;100897.60;;;14.89;100.00
41706;BME280;27385;51.096;17.190;2023-06-24T05:56:55;100899.16;;;14.91;100.00
41706;BME280;27385;51.096;17.190;2023-06-24T05:59:26;100903.67;;;14.92;100.00
41706;BME280;27385;51.096;17.190;2023-06-24T06:01:57;100906.30;;;14.94;100.00
41706;BME280;27385;51.096;17.190;2023-06-24T06:04:28;100909.41;;;14.97;100.00
41706;BME280;27385;51.096;17.190;2023-06-24T06:06:59;100910.26;;;15.00;100.00
41706;BME280;27385;51.096;17.190;2023-06-24T06:09:30;100910.09;;;15.03;100.00
41706;BME280;27385;51.096;17.190;2023-06-24T06:12:01;100908.71;;;15.09;100.00
41706;BME280;27385;51.096;17.190;2023-06-24T06:14:32;100911.67;;;15.13;100.00
41706;BME280;27385;51.096;17.190;2023-06-24T06:17:03;100911.12;;;15.16;100.00
41706;BME280;27385;51.096;17.190;2023-06-24T06:19:34;100908.73;;;15.24;100.00
41706;BME280;27385;51.096;17.190;2023-06-24T06:22:05;100911.83;;;15.31;100.00
41706;BME280;27385;51.096;17.190;2023-06-24T06:24:36;100911.16;;;15.36;100.00
41706;BME280;27385;51.096;17.190;2023-06-24T06:27:10;100909.29;;;15.42;100.00
41706;BME280;27385;51.096;17.190;2023-06-24T06:29:41;100912.64;;;15.48;100.00
41706;BME280;27385;51.096;17.190;2023-06-24T06:32:12;100912.97;;;15.56;100.00
41706;BME280;27385;51.096;17.190;2023-06-24T06:34:43;100913.98;;;15.62;100.00
41706;BME280;27385;51.096;17.190;2023-06-24T06:37:14;100913.59;;;15.67;100.00
41706;BME280;27385;51.096;17.190;2023-06-24T06:39:44;100912.00;;;15.72;100.00
41706;BME280;27385;51.096;17.190;2023-06-24T06:42:15;100920.67;;;15.76;100.00
41706;BME280;27385;51.096;17.190;2023-06-24T06:44:46;100921.21;;;15.79;100.00
41706;BME280;27385;51.096;17.190;2023-06-24T06:47:17;100924.00;;;15.82;100.00
41706;BME280;27385;51.096;17.190;2023-06-24T06:49:48;100921.70;;;15.82;100.00
41706;BME280;27385;51.096;17.190;2023-06-24T06:52:19;100925.29;;;15.83;100.00
41706;BME280;27385;51.096;17.190;2023-06-24T06:54:50;100925.91;;;15.82;100.00
41706;BME280;27385;51.096;17.190;2023-06-24T06:57:20;100924.73;;;15.82;100.00
41706;BME280;27385;51.096;17.190;2023-06-24T06:59:52;100930.50;;;15.81;100.00
41706;BME280;27385;51.096;17.190;2023-06-24T07:02:23;100927.46;;;15.80;100.00
41706;BME280;27385;51.096;17.190;2023-06-24T07:04:54;100926.21;;;15.82;100.00
41706;BME280;27385;51.096;17.190;2023-06-24T07:07:25;100926.48;;;15.84;100.00
41706;BME280;27385;51.096;17.190;2023-06-24T07:09:56;100931.45;;;15.84;100.00
41706;BME280;27385;51.096;17.190;2023-06-24T07:12:27;100927.00;;;15.84;100.00
41706;BME280;27385;51.096;17.190;2023-06-24T07:14:58;100926.41;;;15.87;100.00
41706;BME280;27385;51.096;17.190;2023-06-24T07:17:29;100931.27;;;15.89;100.00
41706;BME280;27385;51.096;17.190;2023-06-24T07:20:00;100933.16;;;15.92;100.00
41706;BME280;27385;51.096;17.190;2023-06-24T07:22:30;100935.02;;;15.97;100.00
41706;BME280;27385;51.096;17.190;2023-06-24T07:25:01;100937.21;;;16.00;100.00
41706;BME280;27385;51.096;17.190;2023-06-24T07:27:32;100934.42;;;16.03;100.00
41706;BME280;27385;51.096;17.190;2023-06-24T07:30:04;100933.25;;;16.04;100.00
41706;BME280;27385;51.096;17.190;2023-06-24T07:32:35;100932.30;;;16.06;100.00
41706;BME280;27385;51.096;17.190;2023-06-24T07:35:07;100932.98;;;16.10;100.00
41706;BME280;27385;51.096;17.190;2023-06-24T07:37:38;100931.95;;;16.14;100.00
41706;BME280;27385;51.096;17.190;2023-06-24T07:40:10;100933.14;;;16.17;100.00
41706;BME280;27385;51.096;17.190;2023-06-24T07:42:41;100932.81;;;16.20;100.00
41706;BME280;27385;51.096;17.190;2023-06-24T07:45:13;100934.00;;;16.23;100.00
41706;BME280;27385;51.096;17.190;2023-06-24T07:47:44;100932.25;;;16.27;100.00
41706;BME280;27385;51.096;17.190;2023-06-24T07:50:15;100935.96;;;16.32;100.00
41706;BME280;27385;51.096;17.190;2023-06-24T07:52:46;100938.11;;;16.32;100.00
41706;BME280;27385;51.096;17.190;2023-06-24T07:55:18;100938.23;;;16.33;100.00
41706;BME280;27385;51.096;17.190;2023-06-24T07:57:49;100937.92;;;16.34;100.00
41706;BME280;27385;51.096;17.190;2023-06-24T08:00:21;100936.30;;;16.35;100.00
41706;BME280;27385;51.096;17.190;2023-06-24T08:02:51;100932.84;;;16.39;100.00
41706;BME280;27385;51.096;17.190;2023-06-24T08:05:23;100932.64;;;16.42;100.00
41706;BME280;27385;51.096;17.190;2023-06-24T08:07:54;100933.32;;;16.45;100.00
41706;BME280;27385;51.096;17.190;2023-06-24T08:10:25;100938.20;;;16.46;100.00
41706;BME280;27385;51.096;17.190;2023-06-24T08:12:56;100938.38;;;16.48;100.00
41706;BME280;27385;51.096;17.190;2023-06-24T08:15:27;100938.36;;;16.51;100.00
41706;BME280;27385;51.096;17.190;2023-06-24T08:17:58;100938.83;;;16.53;100.00
41706;BME280;27385;51.096;17.190;2023-06-24T08:20:29;100943.23;;;16.56;100.00
41706;BME280;27385;51.096;17.190;2023-06-24T08:23:00;100949.05;;;16.62;100.00
41706;BME280;27385;51.096;17.190;2023-06-24T08:25:31;100953.52;;;16.66;100.00
41706;BME280;27385;51.096;17.190;2023-06-24T08:28:02;100955.52;;;16.66;100.00
41706;BME280;27385;51.096;17.190;2023-06-24T08:30:33;100957.01;;;16.67;100.00
41706;BME280;27385;51.096;17.190;2023-06-24T08:33:04;100956.66;;;16.69;100.00
41706;BME280;27385;51.096;17.190;2023-06-24T08:35:34;100954.56;;;16.70;100.00
41706;BME280;27385;51.096;17.190;2023-06-24T08:38:05;100959.70;;;16.70;100.00
41706;BME280;27385;51.096;17.190;2023-06-24T08:40:37;100965.29;;;16.72;100.00
41706;BME280;27385;51.096;17.190;2023-06-24T08:43:09;100963.77;;;16.73;100.00
41706;BME280;27385;51.096;17.190;2023-06-24T08:45:40;100964.61;;;16.77;100.00
41706;BME280;27385;51.096;17.190;2023-06-24T08:48:11;100969.64;;;16.80;100.00
41706;BME280;27385;51.096;17.190;2023-06-24T08:50:46;100970.61;;;16.80;100.00
41706;BME280;27385;51.096;17.190;2023-06-24T08:53:20;100968.58;;;16.83;100.00
41706;BME280;27385;51.096;17.190;2023-06-24T08:55:53;100966.84;;;16.86;100.00
41706;BME280;27385;51.096;17.190;2023-06-24T08:58:25;100970.45;;;16.88;100.00
41706;BME280;27385;51.096;17.190;2023-06-24T09:00:56;100970.66;;;16.90;100.00
41706;BME280;27385;51.096;17.190;2023-06-24T09:03:27;100969.75;;;16.92;100.00
41706;BME280;27385;51.096;17.190;2023-06-24T09:05:58;100972.44;;;16.94;100.00
41706;BME280;27385;51.096;17.190;2023-06-24T09:08:30;100971.27;;;16.95;100.00
41706;BME280;27385;51.096;17.190;2023-06-24T09:11:01;100969.17;;;16.98;100.00
41706;BME280;27385;51.096;17.190;2023-06-24T09:13:36;100972.52;;;17.02;100.00
41706;BME280;27385;51.096;17.190;2023-06-24T09:16:14;100972.17;;;17.04;100.00
41706;BME280;27385;51.096;17.190;2023-06-24T09:18:50;100975.05;;;17.06;100.00
41706;BME280;27385;51.096;17.190;2023-06-24T09:21:25;100977.00;;;17.08;100.00
41706;BME280;27385;51.096;17.190;2023-06-24T09:23:56;100980.35;;;17.10;100.00
41706;BME280;27385;51.096;17.190;2023-06-24T09:26:28;100980.35;;;17.11;100.00
41706;BME280;27385;51.096;17.190;2023-06-24T09:29:00;100977.07;;;17.11;100.00
41706;BME280;27385;51.096;17.190;2023-06-24T09:31:30;100973.02;;;17.14;100.00
41706;BME280;27385;51.096;17.190;2023-06-24T09:34:01;100967.81;;;17.18;100.00
41706;BME280;27385;51.096;17.190;2023-06-24T09:36:33;100972.70;;;17.23;100.00
41706;BME280;27385;51.096;17.190;2023-06-24T09:39:07;100971.29;;;17.27;100.00
41706;BME280;27385;51.096;17.190;2023-06-24T09:41:41;100971.77;;;17.33;100.00
41706;BME280;27385;51.096;17.190;2023-06-24T09:44:13;100970.86;;;17.39;100.00
41706;BME280;27385;51.096;17.190;2023-06-24T09:46:44;100970.41;;;17.45;100.00
41706;BME280;27385;51.096;17.190;2023-06-24T09:49:15;100964.80;;;17.51;100.00
41706;BME280;27385;51.096;17.190;2023-06-24T09:51:47;100961.59;;;17.56;100.00
41706;BME280;27385;51.096;17.190;2023-06-24T09:54:19;100961.76;;;17.62;99.99
41706;BME280;27385;51.096;17.190;2023-06-24T09:56:51;100957.05;;;17.70;100.00
41706;BME280;27385;51.096;17.190;2023-06-24T09:59:23;100963.64;;;17.80;99.92
41706;BME280;27385;51.096;17.190;2023-06-24T10:01:55;100962.61;;;17.88;99.84
41706;BME280;27385;51.096;17.190;2023-06-24T10:04:28;100961.59;;;17.98;99.18
41706;BME280;27385;51.096;17.190;2023-06-24T10:07:00;100960.86;;;18.07;98.82
41706;BME280;27385;51.096;17.190;2023-06-24T10:09:32;100961.29;;;18.15;98.77
41706;BME280;27385;51.096;17.190;2023-06-24T10:12:03;100966.46;;;18.23;98.38
41706;BME280;27385;51.096;17.190;2023-06-24T10:14:55;100963.28;;;18.29;98.43
41706;BME280;27385;51.096;17.190;2023-06-24T10:17:26;100963.38;;;18.33;98.35
41706;BME280;27385;51.096;17.190;2023-06-24T10:19:57;100958.90;;;18.38;98.68
41706;BME280;27385;51.096;17.190;2023-06-24T10:22:31;100963.38;;;18.44;98.37
41706;BME280;27385;51.096;17.190;2023-06-24T10:25:05;100964.16;;;18.44;97.32
41706;BME280;27385;51.096;17.190;2023-06-24T10:27:41;100960.26;;;18.45;97.24
41706;BME280;27385;51.096;17.190;2023-06-24T10:30:18;100963.02;;;18.47;97.53
41706;BME280;27385;51.096;17.190;2023-06-24T10:32:52;100959.94;;;18.49;95.91
41706;BME280;27385;51.096;17.190;2023-06-24T10:35:28;100957.27;;;18.53;96.24
41706;BME280;27385;51.096;17.190;2023-06-24T10:38:01;100956.17;;;18.60;96.86
41706;BME280;27385;51.096;17.190;2023-06-24T10:40:48;100957.90;;;18.67;96.58
41706;BME280;27385;51.096;17.190;2023-06-24T10:43:30;100955.56;;;18.73;95.90
41706;BME280;27385;51.096;17.190;2023-06-24T10:46:00;100954.12;;;18.76;95.71
41706;BME280;27385;51.096;17.190;2023-06-24T10:48:31;100957.34;;;18.81;95.69
41706;BME280;27385;51.096;17.190;2023-06-24T10:51:02;100961.65;;;18.84;95.33
41706;BME280;27385;51.096;17.190;2023-06-24T10:53:33;100959.48;;;18.85;94.68
41706;BME280;27385;51.096;17.190;2023-06-24T10:56:05;100958.66;;;18.87;94.77
41706;BME280;27385;51.096;17.190;2023-06-24T10:58:36;100959.98;;;18.91;94.67
41706;BME280;27385;51.096;17.190;2023-06-24T11:01:10;100962.07;;;18.96;94.99
41706;BME280;27385;51.096;17.190;2023-06-24T11:03:53;100960.91;;;19.04;94.49
41706;BME280;27385;51.096;17.190;2023-06-24T11:06:24;100959.77;;;19.07;93.77
41706;BME280;27385;51.096;17.190;2023-06-24T11:09:03;100957.98;;;19.12;93.70
41706;BME280;27385;51.096;17.190;2023-06-24T11:11:34;100951.55;;;19.17;93.00
41706;BME280;27385;51.096;17.190;2023-06-24T11:14:05;100950.48;;;19.22;92.03
41706;BME280;27385;51.096;17.190;2023-06-24T11:16:36;100951.75;;;19.27;91.51
41706;BME280;27385;51.096;17.190;2023-06-24T11:19:08;100949.30;;;19.31;91.13
41706;BME280;27385;51.096;17.190;2023-06-24T11:21:40;100952.81;;;19.34;90.28
41706;BME280;27385;51.096;17.190;2023-06-24T11:24:11;100949.70;;;19.37;90.70
41706;BME280;27385;51.096;17.190;2023-06-24T11:26:42;100940.41;;;19.43;90.32
41706;BME280;27385;51.096;17.190;2023-06-24T11:29:13;100937.19;;;19.48;89.76
41706;BME280;27385;51.096;17.190;2023-06-24T11:31:46;100935.10;;;19.53;90.60
41706;BME280;27385;51.096;17.190;2023-06-24T11:34:16;100925.34;;;19.63;91.40
41706;BME280;27385;51.096;17.190;2023-06-24T11:36:49;100926.73;;;19.77;90.67
41706;BME280;27385;51.096;17.190;2023-06-24T11:39:24;100922.61;;;19.85;89.56
41706;BME280;27385;51.096;17.190;2023-06-24T11:41:58;100924.20;;;19.92;88.42
41706;BME280;27385;51.096;17.190;2023-06-24T11:44:29;100920.77;;;19.96;87.91
41706;BME280;27385;51.096;17.190;2023-06-24T11:47:06;100917.59;;;20.05;88.93
41706;BME280;27385;51.096;17.190;2023-06-24T11:49:50;100917.86;;;20.15;88.15
41706;BME280;27385;51.096;17.190;2023-06-24T11:55:15;100909.30;;;20.34;86.97
41706;BME280;27385;51.096;17.190;2023-06-24T11:57:51;100912.05;;;20.38;86.83
41706;BME280;27385;51.096;17.190;2023-06-24T12:00:23;100908.28;;;20.45;85.49
41706;BME280;27385;51.096;17.190;2023-06-24T12:02:56;100905.32;;;20.46;85.63
41706;BME280;27385;51.096;17.190;2023-06-24T12:05:29;100901.83;;;20.52;85.93
41706;BME280;27385;51.096;17.190;2023-06-24T12:08:01;100902.34;;;20.62;86.10
41706;BME280;27385;51.096;17.190;2023-06-24T12:10:33;100892.56;;;20.69;85.06
41706;BME280;27385;51.096;17.190;2023-06-24T12:13:05;100893.05;;;20.79;85.40
41706;BME280;27385;51.096;17.190;2023-06-24T12:15:37;100884.63;;;20.89;84.08
41706;BME280;27385;51.096;17.190;2023-06-24T12:18:08;100883.86;;;21.01;83.81
41706;BME280;27385;51.096;17.190;2023-06-24T12:20:39;100881.54;;;21.10;83.23
41706;BME280;27385;51.096;17.190;2023-06-24T12:23:12;100879.89;;;21.17;83.34
41706;BME280;27385;51.096;17.190;2023-06-24T12:25:44;100872.95;;;21.28;84.02
41706;BME280;27385;51.096;17.190;2023-06-24T12:28:15;100868.95;;;21.44;83.96
41706;BME280;27385;51.096;17.190;2023-06-24T12:30:45;100867.42;;;21.62;83.03
41706;BME280;27385;51.096;17.190;2023-06-24T12:33:16;100867.27;;;21.77;81.88
41706;BME280;27385;51.096;17.190;2023-06-24T12:35:48;100870.17;;;21.88;80.27
41706;BME280;27385;51.096;17.190;2023-06-24T12:38:19;100865.42;;;21.91;79.14
41706;BME280;27385;51.096;17.190;2023-06-24T12:40:50;100867.04;;;21.94;79.18
41706;BME280;27385;51.096;17.190;2023-06-24T12:43:22;100866.20;;;21.97;79.09
41706;BME280;27385;51.096;17.190;2023-06-24T12:45:53;100862.08;;;21.98;78.12
41706;BME280;27385;51.096;17.190;2023-06-24T12:48:25;100857.33;;;22.01;78.44
41706;BME280;27385;51.096;17.190;2023-06-24T12:50:56;100847.38;;;22.08;77.97
41706;BME280;27385;51.096;17.190;2023-06-24T12:53:27;100850.09;;;22.16;77.86
41706;BME280;27385;51.096;17.190;2023-06-24T12:55:57;100852.32;;;22.20;76.65
41706;BME280;27385;51.096;17.190;2023-06-24T12:58:28;100851.75;;;22.23;76.26
41706;BME280;27385;51.096;17.190;2023-06-24T13:00:59;100850.99;;;22.28;75.71
41706;BME280;27385;51.096;17.190;2023-06-24T13:03:30;100842.67;;;22.28;75.54
41706;BME280;27385;51.096;17.190;2023-06-24T13:06:01;100848.87;;;22.33;76.16
41706;BME280;27385;51.096;17.190;2023-06-24T13:08:32;100847.61;;;22.40;75.49